KSWF/SWF METAR and TAF weather

Enter ICAO airport designator
Station Type Date Time Source
KSWF METAR 2020/12/01 20:45 UTC NOAA

KSWF 012045Z 24010G18KT 10SM BKN040 05/02 A2956


Station Type Date Time Source
KSWF Decoded METAR 2020/12/01 20:45 UTC NOAA

Newburgh / Stewart, NY, United States (KSWF) 41-30N 074-06W
Dec 01, 2020 - 03:45 PM EST / 2020.12.01 2045 UTC
Wind: from the WSW (240 degrees) at 12 MPH (10 KT) gusting to 21 MPH (18 KT):0
Visibility: 10 mile(s):0
Sky conditions: mostly cloudy
Temperature: 41 F (5 C)
Dew Point: 35 F (2 C)
Relative Humidity: 80%
Pressure (altimeter): 29.56 in. Hg (1001 hPa)
ob: KSWF 012045Z 24010G18KT 10SM BKN040 05/02 A2956
cycle: 21

Station Type Date Time Source
KSWF TAF 2020/12/01 21:33 UTC NOAA

TAF
AMD KSWF 012031Z 0121/0224 24014G25KT P6SM BKN040
FM020200 25011KT P6SM BKN040
FM021200 25013KT P6SM SCT040
FM021700 26015G20KT P6SM BKN040
FM022100 25010KT P6SM BKN090
AMD NOT SKED

Example: see airport list